Time;durP1;ratioP1;P1;durP2;ratioP2;P2;SDS_P1;SDS_P2;PMS_P1;PMS_P2;Temp;Humidity;BMP_temperature;BMP_pressure;BME280_temperature;BME280_humidity;BME280_pressure;Samples;Min_cycle;Max_cycle;Signal;HPM_P1;HPM_P2
2023/09/25 00:00:52;;;;;;;5.88;2.58;;;;;;;;;;4972314;28;20054;-83
2023/09/25 00:03:23;;;;;;;5.28;2.60;;;;;;;;;;4972868;28;20034;-83
2023/09/25 00:05:57;;;;;;;5.18;2.58;;;;;;;;;;4974245;28;20033;-83
2023/09/25 00:08:24;;;;;;;4.15;2.38;;;;;;;;;;4975003;28;20062;-83
2023/09/25 00:11:09;;;;;;;4.07;2.45;;;;;;;;;;4995813;28;20025;-84
2023/09/25 00:13:37;;;;;;;4.90;2.63;;;;;;;;;;4982161;28;20038;-82
2023/09/25 00:16:07;;;;;;;4.17;2.50;;;;;;;;;;4965276;28;20029;-84
2023/09/25 00:18:34;;;;;;;7.97;2.70;;;;;;;;;;4999310;28;20018;-82
2023/09/25 00:21:03;;;;;;;5.32;2.72;;;;;;;;;;4999346;28;20026;-83
2023/09/25 00:23:30;;;;;;;5.32;2.75;;;;;;;;;;4966859;28;20047;-83
2023/09/25 00:26:01;;;;;;;6.60;2.77;;;;;;;;;;5516794;23;20074;-83
2023/09/25 00:28:29;;;;;;;6.88;2.65;;;;;;;;;;5000627;28;20298;-83
2023/09/25 00:30:55;;;;;;;5.13;2.45;;;;;;;;;;4998711;28;20026;-83
2023/09/25 00:36:12;;;;;;;5.88;3.20;;;;;;;;;;5054901;23;20047;-83
2023/09/25 00:38:38;;;;;;;4.82;2.50;;;;;;;;;;4939736;28;20126;-83
2023/09/25 00:41:03;;;;;;;6.00;2.83;;;;;;;;;;4953791;28;20035;-83
2023/09/25 00:43:30;;;;;;;4.75;2.45;;;;;;;;;;4969006;28;20053;-83
2023/09/25 00:45:57;;;;;;;7.38;2.85;;;;;;;;;;4971102;28;20035;-84
2023/09/25 00:48:27;;;;;;;4.93;2.60;;;;;;;;;;4970079;28;20039;-83
2023/09/25 00:50:57;;;;;;;7.57;3.03;;;;;;;;;;4954646;28;20033;-84
2023/09/25 00:53:28;;;;;;;5.28;3.15;;;;;;;;;;4971179;28;20037;-82
2023/09/25 00:55:55;;;;;;;3.60;2.10;;;;;;;;;;4938525;28;20038;-83
2023/09/25 00:58:21;;;;;;;5.07;2.10;;;;;;;;;;4936416;28;20034;-83
2023/09/25 01:00:48;;;;;;;6.70;3.40;;;;;;;;;;4968805;28;20041;-83
2023/09/25 01:03:14;;;;;;;4.07;2.38;;;;;;;;;;4969754;28;20050;-83
2023/09/25 01:08:46;;;;;;;3.50;2.20;;;;;;;;;;5445886;23;20050;-83
2023/09/25 01:11:12;;;;;;;5.15;2.20;;;;;;;;;;4980588;28;20411;-83
2023/09/25 01:13:41;;;;;;;3.00;2.17;;;;;;;;;;4980429;28;20053;-83
2023/09/25 01:16:12;;;;;;;4.95;2.20;;;;;;;;;;5012798;28;20107;-83
2023/09/25 01:18:40;;;;;;;4.95;2.25;;;;;;;;;;4945624;29;20020;-83
2023/09/25 01:21:13;;;;;;;5.47;2.53;;;;;;;;;;4979876;28;20039;-83
2023/09/25 01:23:42;;;;;;;5.07;2.30;;;;;;;;;;4947367;29;20113;-84
2023/09/25 01:26:13;;;;;;;4.55;2.50;;;;;;;;;;4978168;28;20046;-83
2023/09/25 01:28:43;;;;;;;8.50;2.60;;;;;;;;;;4961056;29;20069;-83
2023/09/25 01:31:11;;;;;;;5.95;2.17;;;;;;;;;;4976161;29;20036;-83
2023/09/25 01:33:38;;;;;;;6.10;2.47;;;;;;;;;;4944302;29;20067;-83
2023/09/25 01:36:09;;;;;;;3.25;2.08;;;;;;;;;;4978408;28;20035;-83
2023/09/25 01:38:37;;;;;;;5.40;2.58;;;;;;;;;;4965583;28;20035;-83
2023/09/25 01:41:05;;;;;;;3.92;2.20;;;;;;;;;;4981647;28;20030;-83
2023/09/25 01:43:33;;;;;;;4.00;2.40;;;;;;;;;;4994251;28;20695;-83
2023/09/25 01:46:04;;;;;;;6.05;2.75;;;;;;;;;;4993398;28;20073;-83
2023/09/25 01:48:32;;;;;;;;;;;;;;;;;;4994383;28;20039;-84
2023/09/25 01:50:59;;;;;;;4.90;2.17;;;;;;;;;;4979221;28;19910;-83
2023/09/25 01:53:25;;;;;;;4.80;2.22;;;;;;;;;;4976461;28;20050;-84
2023/09/25 01:55:53;;;;;;;3.10;1.80;;;;;;;;;;4992396;28;20510;-83
2023/09/25 01:58:21;;;;;;;4.22;2.15;;;;;;;;;;4976195;28;20058;-83
2023/09/25 02:00:53;;;;;;;5.45;2.45;;;;;;;;;;4991724;28;20077;-83
2023/09/25 02:03:20;;;;;;;4.72;2.65;;;;;;;;;;4959690;28;20041;-83
2023/09/25 02:05:50;;;;;;;4.72;2.10;;;;;;;;;;4975158;28;20031;-84
2023/09/25 02:08:16;;;;;;;4.43;2.45;;;;;;;;;;4958186;28;20038;-83
2023/09/25 02:10:46;;;;;;;3.95;2.08;;;;;;;;;;4993343;28;20039;-83
2023/09/25 02:13:25;;;;;;;5.10;2.10;;;;;;;;;;4963189;28;20039;-83
2023/09/25 02:15:55;;;;;;;5.82;2.80;;;;;;;;;;4977309;28;20054;-83
2023/09/25 02:18:24;;;;;;;5.13;2.15;;;;;;;;;;4995559;28;20047;-83
2023/09/25 02:20:51;;;;;;;3.50;2.10;;;;;;;;;;4961720;28;20096;-83
2023/09/25 02:23:21;;;;;;;3.23;2.10;;;;;;;;;;4960641;28;20407;-83
2023/09/25 02:25:58;;;;;;;5.25;2.13;;;;;;;;;;4983239;28;20277;-81
2023/09/25 02:28:32;;;;;;;3.83;2.30;;;;;;;;;;4961703;29;20027;-83
2023/09/25 02:31:01;;;;;;;3.50;2.00;;;;;;;;;;4961516;29;20065;-83
2023/09/25 02:33:34;;;;;;;3.90;2.13;;;;;;;;;;4977125;29;20039;-83
2023/09/25 02:36:09;;;;;;;3.38;1.88;;;;;;;;;;4969838;28;20035;-83
2023/09/25 02:39:05;;;;;;;4.00;2.45;;;;;;;;;;4984297;28;20050;-83
2023/09/25 02:41:33;;;;;;;7.82;3.28;;;;;;;;;;4981520;28;20038;-83
2023/09/25 02:44:00;;;;;;;6.30;3.97;;;;;;;;;;4981904;28;20042;-83
2023/09/25 02:46:26;;;;;;;4.95;2.63;;;;;;;;;;4982371;28;20038;-83
2023/09/25 02:48:57;;;;;;;4.72;2.35;;;;;;;;;;5014350;28;20023;-83
2023/09/25 02:51:27;;;;;;;5.43;2.70;;;;;;;;;;4997961;28;20038;-83
2023/09/25 02:53:55;;;;;;;5.75;2.72;;;;;;;;;;4996160;28;20576;-83
2023/09/25 02:56:21;;;;;;;5.97;2.58;;;;;;;;;;4981479;28;20031;-83
2023/09/25 02:58:53;;;;;;;5.40;2.47;;;;;;;;;;4965487;28;20042;-84
2023/09/25 03:01:23;;;;;;;4.43;2.38;;;;;;;;;;5003791;28;20015;-84
2023/09/25 03:03:59;;;;;;;5.38;2.70;;;;;;;;;;4997916;28;20015;-83
2023/09/25 03:06:27;;;;;;;4.95;2.78;;;;;;;;;;4967212;28;20031;-82
2023/09/25 03:08:55;;;;;;;4.30;2.33;;;;;;;;;;4981645;28;20038;-84
2023/09/25 03:11:23;;;;;;;5.75;2.58;;;;;;;;;;4980613;28;20022;-84
2023/09/25 03:13:52;;;;;;;4.78;2.45;;;;;;;;;;4964844;28;20022;-83
2023/09/25 03:16:19;;;;;;;4.28;2.60;;;;;;;;;;4997061;28;20106;-83
2023/09/25 03:18:47;;;;;;;5.95;2.20;;;;;;;;;;4998318;28;20030;-84
2023/09/25 03:21:16;;;;;;;5.53;2.53;;;;;;;;;;4981614;28;20049;-83
2023/09/25 03:23:50;;;;;;;5.78;2.40;;;;;;;;;;4982979;28;20027;-83
2023/09/25 03:26:17;;;;;;;4.22;2.33;;;;;;;;;;4966852;28;20046;-83
2023/09/25 03:28:46;;;;;;;6.05;2.40;;;;;;;;;;4981796;28;20034;-83
2023/09/25 03:31:16;;;;;;;4.85;2.53;;;;;;;;;;4963607;28;20039;-84
2023/09/25 03:33:45;;;;;;;6.75;2.78;;;;;;;;;;4961257;28;20106;-83
2023/09/25 03:36:13;;;;;;;4.13;2.45;;;;;;;;;;4963968;28;20057;-84
2023/09/25 03:38:41;;;;;;;5.97;3.08;;;;;;;;;;4996961;28;20034;-83
2023/09/25 03:41:09;;;;;;;5.72;3.00;;;;;;;;;;4965885;28;20053;-84
2023/09/25 03:43:36;;;;;;;10.45;6.13;;;;;;;;;;4996365;28;20098;-83
2023/09/25 03:46:08;;;;;;;5.78;3.10;;;;;;;;;;4965679;28;20046;-83
2023/09/25 03:48:38;;;;;;;6.13;2.85;;;;;;;;;;4983656;28;20073;-83
2023/09/25 03:51:11;;;;;;;6.22;2.47;;;;;;;;;;4983412;28;20058;-84
2023/09/25 03:53:42;;;;;;;6.32;2.50;;;;;;;;;;4983229;28;20038;-83
2023/09/25 03:56:37;;;;;;;4.53;2.88;;;;;;;;;;5446827;23;20050;-82
2023/09/25 03:59:26;;;;;;;7.43;4.38;;;;;;;;;;4983437;28;20033;-84
2023/09/25 04:10:57;;;;;;;4.72;2.60;;;;;;;;;;4980787;28;20067;-82
2023/09/25 04:13:23;;;;;;;6.68;2.80;;;;;;;;;;4960842;28;20475;-81
2023/09/25 04:15:50;;;;;;;7.35;4.43;;;;;;;;;;4962809;29;20046;-81
2023/09/25 04:18:18;;;;;;;5.70;3.20;;;;;;;;;;4977430;28;20074;-81
2023/09/25 04:20:44;;;;;;;7.85;2.80;;;;;;;;;;4943321;29;20023;-81
2023/09/25 04:23:09;;;;;;;4.63;2.70;;;;;;;;;;4944655;29;20054;-81
2023/09/25 04:25:35;;;;;;;8.90;3.78;;;;;;;;;;4962823;28;20110;-82
2023/09/25 04:28:00;;;;;;;7.57;3.83;;;;;;;;;;4959495;29;20042;-82
2023/09/25 04:30:27;;;;;;;8.07;4.35;;;;;;;;;;4957445;29;20078;-82
2023/09/25 04:32:56;;;;;;;5.65;3.08;;;;;;;;;;4942208;29;20110;-82
2023/09/25 04:35:22;;;;;;;6.78;3.03;;;;;;;;;;4959830;29;20160;-82
2023/09/25 04:37:48;;;;;;;7.57;3.50;;;;;;;;;;4961184;29;20042;-82
2023/09/25 04:40:22;;;;;;;8.68;4.90;;;;;;;;;;4965283;28;20027;-80
2023/09/25 04:42:52;;;;;;;5.68;3.10;;;;;;;;;;4967569;29;20054;-81
2023/09/25 04:45:19;;;;;;;4.97;2.60;;;;;;;;;;4952242;29;20062;-82
2023/09/25 04:47:48;;;;;;;8.93;4.80;;;;;;;;;;4954033;29;20035;-81
2023/09/25 04:50:15;;;;;;;12.55;6.97;;;;;;;;;;4966084;28;20043;-80
2023/09/25 04:52:42;;;;;;;7.03;4.38;;;;;;;;;;4977686;28;20031;-81
2023/09/25 04:55:08;;;;;;;5.18;2.83;;;;;;;;;;4958757;28;20059;-81
2023/09/25 04:57:34;;;;;;;5.97;3.33;;;;;;;;;;4959274;28;20027;-80
2023/09/25 05:02:46;;;;;;;6.93;2.70;;;;;;;;;;4966950;29;20051;-81
2023/09/25 05:05:15;;;;;;;6.72;2.90;;;;;;;;;;4964615;29;20122;-80
2023/09/25 05:07:42;;;;;;;4.18;2.58;;;;;;;;;;4970714;28;20035;-81
2023/09/25 05:10:11;;;;;;;7.68;2.80;;;;;;;;;;4974919;29;20046;-81
2023/09/25 05:12:38;;;;;;;6.90;2.78;;;;;;;;;;4960887;29;20039;-81
2023/09/25 05:15:03;;;;;;;7.15;2.80;;;;;;;;;;4961113;28;20038;-81
2023/09/25 05:17:29;;;;;;;6.13;3.28;;;;;;;;;;4974229;29;20066;-81
2023/09/25 05:19:55;;;;;;;4.70;2.90;;;;;;;;;;4958640;29;20031;-81
2023/09/25 05:22:20;;;;;;;4.78;2.50;;;;;;;;;;4970006;28;20541;-80
2023/09/25 05:24:48;;;;;;;6.35;2.90;;;;;;;;;;4945983;29;20045;-81
2023/09/25 05:27:14;;;;;;;4.95;2.85;;;;;;;;;;4943819;29;20053;-81
2023/09/25 05:29:39;;;;;;;6.85;4.22;;;;;;;;;;4942247;29;20566;-81
2023/09/25 05:32:05;;;;;;;5.20;3.03;;;;;;;;;;4942737;29;20368;-80
2023/09/25 05:34:30;;;;;;;5.43;2.85;;;;;;;;;;4942611;29;20042;-82
2023/09/25 05:36:56;;;;;;;7.97;3.97;;;;;;;;;;4958023;28;20126;-80
2023/09/25 05:39:24;;;;;;;8.00;4.85;;;;;;;;;;4941818;28;20035;-80
2023/09/25 05:41:51;;;;;;;14.68;8.02;;;;;;;;;;4960490;28;20039;-82
2023/09/25 05:44:17;;;;;;;7.10;3.47;;;;;;;;;;4941347;29;20396;-81
2023/09/25 05:46:42;;;;;;;7.10;3.92;;;;;;;;;;4973498;28;20042;-80
2023/09/25 05:49:08;;;;;;;7.55;3.65;;;;;;;;;;4957720;29;20075;-82
2023/09/25 05:51:33;;;;;;;10.13;5.50;;;;;;;;;;4957309;28;20525;-82
2023/09/25 05:53:59;;;;;;;6.38;3.20;;;;;;;;;;4941367;29;20067;-82
2023/09/25 05:56:28;;;;;;;6.97;4.10;;;;;;;;;;4958730;28;20111;-80
2023/09/25 05:58:54;;;;;;;8.80;4.60;;;;;;;;;;4956960;28;20034;-81
2023/09/25 06:01:19;;;;;;;6.72;4.00;;;;;;;;;;4941982;29;20103;-82
2023/09/25 06:03:45;;;;;;;4.78;3.05;;;;;;;;;;4957069;29;20063;-81
2023/09/25 06:06:10;;;;;;;9.90;5.55;;;;;;;;;;4956400;29;20035;-82
2023/09/25 06:08:36;;;;;;;10.30;5.82;;;;;;;;;;4959549;28;20051;-81
2023/09/25 06:11:04;;;;;;;6.35;3.45;;;;;;;;;;4964832;28;20090;-80
2023/09/25 06:13:33;;;;;;;7.82;3.17;;;;;;;;;;4949733;29;20063;-82
2023/09/25 06:15:58;;;;;;;7.07;4.10;;;;;;;;;;4945190;29;20112;-81
2023/09/25 06:18:24;;;;;;;6.78;3.40;;;;;;;;;;4930062;29;20504;-81
2023/09/25 06:20:50;;;;;;;5.28;3.15;;;;;;;;;;4947248;29;20046;-82
2023/09/25 06:23:16;;;;;;;6.68;3.33;;;;;;;;;;4928473;29;20036;-81
2023/09/25 06:25:42;;;;;;;6.80;2.85;;;;;;;;;;4926739;29;20515;-81
2023/09/25 06:28:08;;;;;;;6.20;3.03;;;;;;;;;;4941842;29;20288;-81
2023/09/25 06:30:34;;;;;;;5.57;3.47;;;;;;;;;;4926018;29;20384;-83
2023/09/25 06:33:00;;;;;;;6.72;3.80;;;;;;;;;;4941850;29;20041;-83
2023/09/25 06:35:25;;;;;;;4.90;3.08;;;;;;;;;;4943639;28;20073;-82
2023/09/25 06:37:51;;;;;;;7.47;2.90;;;;;;;;;;4943774;29;20039;-82
2023/09/25 06:40:19;;;;;;;5.50;3.22;;;;;;;;;;4958760;28;20034;-82
2023/09/25 06:42:44;;;;;;;7.80;3.75;;;;;;;;;;4943368;29;20038;-82
2023/09/25 06:45:10;;;;;;;6.32;3.22;;;;;;;;;;4942565;29;20031;-82
2023/09/25 06:47:40;;;;;;;;;;;;;;;;;;4958422;29;20091;-82
2023/09/25 06:50:06;;;;;;;5.63;3.33;;;;;;;;;;4959906;28;19910;-82
2023/09/25 06:52:31;;;;;;;5.13;2.80;;;;;;;;;;4960860;28;20118;-80
2023/09/25 06:54:57;;;;;;;8.65;4.05;;;;;;;;;;4959030;29;20038;-82
2023/09/25 06:57:22;;;;;;;6.25;3.20;;;;;;;;;;4958858;29;20515;-80
2023/09/25 06:59:48;;;;;;;5.10;3.05;;;;;;;;;;4959355;29;20031;-80
2023/09/25 07:02:13;;;;;;;7.68;3.65;;;;;;;;;;4959340;28;20024;-82
2023/09/25 07:04:39;;;;;;;6.03;3.40;;;;;;;;;;4950581;28;20028;-82
2023/09/25 07:07:05;;;;;;;6.28;3.67;;;;;;;;;;4940608;29;20035;-81
2023/09/25 07:09:31;;;;;;;12.60;4.80;;;;;;;;;;4924756;29;20065;-82
2023/09/25 07:11:57;;;;;;;6.55;4.35;;;;;;;;;;4955305;29;20480;-82
2023/09/25 07:14:22;;;;;;;12.95;5.05;;;;;;;;;;4921825;29;20126;-80
2023/09/25 07:16:48;;;;;;;8.77;4.68;;;;;;;;;;4922774;29;20031;-82
2023/09/25 07:19:13;;;;;;;8.00;4.40;;;;;;;;;;4943261;28;20035;-82
2023/09/25 07:21:40;;;;;;;6.93;4.20;;;;;;;;;;4958314;28;20066;-81
2023/09/25 07:24:06;;;;;;;7.13;3.95;;;;;;;;;;4957223;28;20062;-83
2023/09/25 07:26:32;;;;;;;7.75;4.30;;;;;;;;;;4957673;28;20039;-81
2023/09/25 07:28:57;;;;;;;11.00;4.60;;;;;;;;;;4942163;29;20115;-81
2023/09/25 07:31:23;;;;;;;8.45;5.00;;;;;;;;;;4959380;29;20043;-82
2023/09/25 07:33:49;;;;;;;7.50;4.00;;;;;;;;;;4958007;28;20462;-82
2023/09/25 07:36:19;;;;;;;8.07;4.28;;;;;;;;;;4957555;28;20031;-81
2023/09/25 07:38:48;;;;;;;15.20;5.45;;;;;;;;;;4942177;29;20039;-83
2023/09/25 07:41:14;;;;;;;7.95;5.10;;;;;;;;;;4959596;29;20111;-83
2023/09/25 07:43:40;;;;;;;6.38;4.55;;;;;;;;;;4962398;28;20106;-80
2023/09/25 07:46:06;;;;;;;7.50;3.85;;;;;;;;;;4976826;28;20098;-82
2023/09/25 07:48:32;;;;;;;6.63;4.03;;;;;;;;;;4946329;29;20177;-83
2023/09/25 07:51:00;;;;;;;9.13;3.80;;;;;;;;;;4962474;29;20035;-82
2023/09/25 07:53:28;;;;;;;7.03;3.58;;;;;;;;;;4963188;28;20046;-82
2023/09/25 07:55:53;;;;;;;7.43;3.75;;;;;;;;;;4946337;29;20047;-82
2023/09/25 07:58:19;;;;;;;6.93;3.60;;;;;;;;;;4960710;28;20031;-83
2023/09/25 08:00:47;;;;;;;9.02;4.22;;;;;;;;;;4959368;28;20041;-83
2023/09/25 08:03:17;;;;;;;7.45;3.90;;;;;;;;;;4958290;28;20079;-83
2023/09/25 08:05:45;;;;;;;6.20;4.05;;;;;;;;;;4959095;28;20085;-83
2023/09/25 08:08:11;;;;;;;8.13;3.90;;;;;;;;;;4960555;28;20031;-82
2023/09/25 08:10:37;;;;;;;8.10;4.40;;;;;;;;;;4962663;29;20067;-83
2023/09/25 08:13:02;;;;;;;6.70;4.30;;;;;;;;;;4965177;28;20031;-81
2023/09/25 08:15:28;;;;;;;5.97;3.47;;;;;;;;;;4975804;28;20042;-82
2023/09/25 08:17:53;;;;;;;7.32;4.00;;;;;;;;;;4943934;29;20542;-82
2023/09/25 08:20:22;;;;;;;8.23;3.55;;;;;;;;;;4959893;28;20035;-82
2023/09/25 08:22:49;;;;;;;5.68;3.67;;;;;;;;;;4960681;28;20046;-82
2023/09/25 08:25:15;;;;;;;7.93;4.07;;;;;;;;;;4958542;28;20046;-82
2023/09/25 08:27:41;;;;;;;6.75;3.70;;;;;;;;;;4957428;28;20027;-81
2023/09/25 08:30:07;;;;;;;8.65;3.78;;;;;;;;;;4957601;29;20508;-82
2023/09/25 08:32:33;;;;;;;7.88;4.60;;;;;;;;;;4939238;29;20367;-81
2023/09/25 08:34:59;;;;;;;5.82;3.38;;;;;;;;;;4961152;28;20035;-81
2023/09/25 08:37:26;;;;;;;8.45;3.90;;;;;;;;;;4945882;29;20463;-81
2023/09/25 08:39:52;;;;;;;6.75;3.28;;;;;;;;;;4958088;28;20031;-81
2023/09/25 08:42:22;;;;;;;6.45;3.60;;;;;;;;;;4953777;29;20031;-79
2023/09/25 08:44:50;;;;;;;5.40;3.20;;;;;;;;;;4972983;28;20440;-81
2023/09/25 08:47:16;;;;;;;10.13;3.90;;;;;;;;;;4953417;28;20035;-81
2023/09/25 08:49:42;;;;;;;6.85;3.30;;;;;;;;;;4947178;29;20039;-78
2023/09/25 08:52:08;;;;;;;10.45;3.63;;;;;;;;;;4923585;29;20483;-81
2023/09/25 08:54:35;;;;;;;9.95;3.58;;;;;;;;;;4956502;28;20043;-80
2023/09/25 08:57:01;;;;;;;5.82;3.45;;;;;;;;;;4953998;28;20140;-81
2023/09/25 08:59:27;;;;;;;7.38;3.30;;;;;;;;;;4937779;29;20066;-81
2023/09/25 09:01:53;;;;;;;5.57;3.00;;;;;;;;;;4954794;29;20511;-81
2023/09/25 09:04:22;;;;;;;4.75;3.08;;;;;;;;;;4938145;29;20058;-81
2023/09/25 09:06:47;;;;;;;4.75;2.90;;;;;;;;;;4954517;28;20039;-80
2023/09/25 09:09:13;;;;;;;4.68;2.33;;;;;;;;;;4955749;28;20043;-80
2023/09/25 09:11:48;;;;;;;7.68;2.75;;;;;;;;;;4971482;28;20604;-80
2023/09/25 09:14:13;;;;;;;7.13;2.80;;;;;;;;;;4946509;29;20070;-80
2023/09/25 09:16:39;;;;;;;5.40;2.88;;;;;;;;;;4945149;29;20036;-81
2023/09/25 09:19:06;;;;;;;5.05;2.80;;;;;;;;;;4943413;29;20131;-81
2023/09/25 09:21:33;;;;;;;7.07;3.17;;;;;;;;;;4973569;28;20087;-82
2023/09/25 09:23:59;;;;;;;8.43;2.55;;;;;;;;;;4972948;28;20078;-81
2023/09/25 09:26:25;;;;;;;5.18;2.60;;;;;;;;;;4976175;28;20403;-82
2023/09/25 09:28:53;;;;;;;7.68;2.90;;;;;;;;;;4945502;29;20034;-82
2023/09/25 09:31:19;;;;;;;5.05;2.70;;;;;;;;;;4957740;28;20135;-81
2023/09/25 09:33:45;;;;;;;12.25;3.05;;;;;;;;;;4949953;28;20507;-81
2023/09/25 09:36:12;;;;;;;7.13;2.58;;;;;;;;;;4955538;29;20070;-80
2023/09/25 09:38:39;;;;;;;6.05;3.03;;;;;;;;;;4959420;29;20031;-80
2023/09/25 09:41:06;;;;;;;6.18;2.60;;;;;;;;;;4959622;28;20491;-82
2023/09/25 09:43:32;;;;;;;5.57;3.08;;;;;;;;;;4958574;28;20028;-81
2023/09/25 09:45:59;;;;;;;8.55;2.63;;;;;;;;;;4959442;29;20035;-81
2023/09/25 09:48:26;;;;;;;7.35;2.70;;;;;;;;;;4973456;28;20038;-81
2023/09/25 09:50:56;;;;;;;4.28;2.50;;;;;;;;;;4957297;28;20035;-82
2023/09/25 09:53:22;;;;;;;6.22;2.75;;;;;;;;;;4955905;28;20452;-80
2023/09/25 09:55:49;;;;;;;6.05;2.40;;;;;;;;;;4952587;28;20035;-81
2023/09/25 09:58:15;;;;;;;6.13;2.45;;;;;;;;;;4960114;29;20082;-80
2023/09/25 10:00:41;;;;;;;5.45;2.45;;;;;;;;;;4959743;29;20035;-80
2023/09/25 10:03:08;;;;;;;6.25;2.30;;;;;;;;;;4962264;28;20079;-79
2023/09/25 10:05:44;;;;;;;5.32;2.65;;;;;;;;;;4943280;29;20491;-80
2023/09/25 10:08:10;;;;;;;5.22;2.50;;;;;;;;;;4943114;28;20039;-80
2023/09/25 10:10:36;;;;;;;6.28;2.88;;;;;;;;;;5003708;23;20112;-75
2023/09/25 10:13:06;;;;;;;8.05;2.92;;;;;;;;;;4991841;28;20026;-75
2023/09/25 10:15:32;;;;;;;6.03;2.58;;;;;;;;;;4980118;28;20389;-75
2023/09/25 10:17:58;;;;;;;4.15;2.20;;;;;;;;;;4990957;28;20033;-75
2023/09/25 10:20:28;;;;;;;4.95;2.03;;;;;;;;;;4989700;28;20203;-75
2023/09/25 10:22:58;;;;;;;4.05;2.13;;;;;;;;;;4974784;28;20073;-76
2023/09/25 10:25:27;;;;;;;9.75;2.33;;;;;;;;;;4975365;28;20035;-76
2023/09/25 10:27:53;;;;;;;5.07;2.25;;;;;;;;;;4994537;28;20084;-76
2023/09/25 10:30:19;;;;;;;6.97;2.03;;;;;;;;;;4977660;28;20038;-77
2023/09/25 10:32:52;;;;;;;7.35;2.60;;;;;;;;;;4993012;28;20030;-76
2023/09/25 10:35:36;;;;;;;3.08;1.83;;;;;;;;;;4974739;28;20033;-77
2023/09/25 10:38:25;;;;;;;4.90;1.92;;;;;;;;;;4991522;28;20385;-76
2023/09/25 10:40:56;;;;;;;5.57;1.60;;;;;;;;;;4970721;28;20019;-77
2023/09/25 10:43:22;;;;;;;3.67;2.20;;;;;;;;;;4983921;28;20065;-77
2023/09/25 10:45:52;;;;;;;5.05;2.00;;;;;;;;;;4977883;28;20054;-77
2023/09/25 10:48:25;;;;;;;5.15;2.30;;;;;;;;;;4994547;28;20077;-77
2023/09/25 10:50:51;;;;;;;4.90;2.35;;;;;;;;;;4977036;28;20444;-77
2023/09/25 10:53:17;;;;;;;9.75;2.20;;;;;;;;;;4994218;28;20453;-76
2023/09/25 10:55:43;;;;;;;4.00;2.33;;;;;;;;;;4987134;28;20033;-76
2023/09/25 10:58:15;;;;;;;8.35;1.92;;;;;;;;;;4993465;28;20031;-77
2023/09/25 11:00:49;;;;;;;;;;;;;;;;;;4979901;28;20046;-76
2023/09/25 11:03:18;;;;;;;5.95;2.00;;;;;;;;;;4995363;28;19910;-77
2023/09/25 11:05:48;;;;;;;3.95;1.70;;;;;;;;;;4977094;28;20025;-77
2023/09/25 11:08:21;;;;;;;4.85;1.70;;;;;;;;;;4994764;28;20034;-76
2023/09/25 11:10:56;;;;;;;6.25;2.05;;;;;;;;;;4994704;28;20069;-76
2023/09/25 11:13:25;;;;;;;7.00;2.20;;;;;;;;;;4977497;28;20062;-77
2023/09/25 11:15:52;;;;;;;5.55;1.90;;;;;;;;;;4961685;28;20056;-77
2023/09/25 11:18:24;;;;;;;4.53;1.95;;;;;;;;;;4961863;28;20398;-77
2023/09/25 11:21:10;;;;;;;5.68;1.98;;;;;;;;;;4980644;28;20066;-76
2023/09/25 11:23:39;;;;;;;4.25;2.20;;;;;;;;;;4996082;28;20106;-78
2023/09/25 11:26:04;;;;;;;;;;;;;;;;;;4987537;28;20023;-78
2023/09/25 11:28:32;;;;;;;4.88;1.92;;;;;;;;;;4976860;28;19919;-78
2023/09/25 11:31:05;;;;;;;3.63;1.60;;;;;;;;;;4992460;28;20522;-77
2023/09/25 11:33:34;;;;;;;4.28;1.60;;;;;;;;;;4958243;28;20082;-78
2023/09/25 11:36:11;;;;;;;3.28;1.67;;;;;;;;;;4976381;28;20085;-78
2023/09/25 11:38:48;;;;;;;4.15;1.60;;;;;;;;;;4983290;28;20028;-77
2023/09/25 11:41:14;;;;;;;4.63;1.75;;;;;;;;;;4974409;28;20030;-78
2023/09/25 11:43:39;;;;;;;4.00;1.60;;;;;;;;;;4991513;28;20023;-78
2023/09/25 11:46:05;;;;;;;5.10;1.80;;;;;;;;;;4987257;28;20085;-77
2023/09/25 11:48:38;;;;;;;4.60;1.50;;;;;;;;;;4991786;28;20026;-77
2023/09/25 11:51:12;;;;;;;7.50;3.63;;;;;;;;;;4959811;28;20042;-81
2023/09/25 11:53:41;;;;;;;10.45;4.95;;;;;;;;;;4986940;28;20030;-77
2023/09/25 11:56:07;;;;;;;15.27;8.60;;;;;;;;;;4993114;28;20394;-78
2023/09/25 11:58:39;;;;;;;7.38;3.33;;;;;;;;;;4976953;28;20031;-78
2023/09/25 12:01:12;;;;;;;24.35;13.02;;;;;;;;;;4992007;28;20505;-78
2023/09/25 12:03:41;;;;;;;18.95;9.07;;;;;;;;;;4992083;28;20218;-78
2023/09/25 12:06:09;;;;;;;16.73;5.88;;;;;;;;;;4993345;28;20483;-78
2023/09/25 12:08:38;;;;;;;5.38;2.60;;;;;;;;;;4957862;28;20069;-77
2023/09/25 12:11:07;;;;;;;8.52;3.10;;;;;;;;;;4976978;28;20045;-78
2023/09/25 12:13:43;;;;;;;5.78;2.10;;;;;;;;;;4985058;28;20048;-78
2023/09/25 12:16:18;;;;;;;4.85;1.35;;;;;;;;;;4977604;28;20081;-77
2023/09/25 12:19:02;;;;;;;7.63;1.92;;;;;;;;;;4992111;28;20031;-77
2023/09/25 12:21:29;;;;;;;5.13;2.25;;;;;;;;;;4957157;28;20019;-77
2023/09/25 12:23:56;;;;;;;9.03;3.70;;;;;;;;;;4958006;28;20081;-78
2023/09/25 12:26:54;;;;;;;3.70;1.67;;;;;;;;;;4993300;28;20116;-78
2023/09/25 12:29:30;;;;;;;3.83;1.73;;;;;;;;;;4998326;28;20513;-78
2023/09/25 12:32:01;;;;;;;3.83;1.50;;;;;;;;;;4989459;28;20057;-78
2023/09/25 12:34:30;;;;;;;9.55;1.70;;;;;;;;;;4975460;28;20509;-78
2023/09/25 12:36:56;;;;;;;3.17;1.30;;;;;;;;;;4975954;28;20044;-78
2023/09/25 12:39:25;;;;;;;4.20;1.88;;;;;;;;;;4994395;28;20053;-78
2023/09/25 12:41:51;;;;;;;2.80;1.35;;;;;;;;;;4995297;28;20037;-78
2023/09/25 12:44:18;;;;;;;4.30;1.30;;;;;;;;;;4991547;28;20406;-78
2023/09/25 12:46:45;;;;;;;2.75;1.42;;;;;;;;;;4975593;28;20405;-77
2023/09/25 12:49:14;;;;;;;2.95;1.30;;;;;;;;;;4991292;28;20037;-78
2023/09/25 12:51:40;;;;;;;4.03;1.38;;;;;;;;;;4976047;28;20049;-78
2023/09/25 12:54:06;;;;;;;2.60;1.30;;;;;;;;;;4959401;28;20041;-77
2023/09/25 12:56:32;;;;;;;2.80;1.25;;;;;;;;;;4959926;28;20027;-78
2023/09/25 12:58:58;;;;;;;4.57;1.50;;;;;;;;;;4993620;28;20065;-78
2023/09/25 13:01:23;;;;;;;2.65;1.20;;;;;;;;;;4994794;28;20478;-77
2023/09/25 13:03:49;;;;;;;2.28;1.27;;;;;;;;;;4995959;28;20022;-77
2023/09/25 13:06:15;;;;;;;3.92;1.48;;;;;;;;;;4979642;28;20030;-77
2023/09/25 13:08:41;;;;;;;3.38;1.30;;;;;;;;;;4995628;28;20446;-77
2023/09/25 13:11:13;;;;;;;2.83;1.40;;;;;;;;;;4965486;28;20048;-78
2023/09/25 13:13:41;;;;;;;5.28;1.52;;;;;;;;;;4979862;28;20042;-77
2023/09/25 13:16:07;;;;;;;4.18;1.40;;;;;;;;;;4965549;28;20030;-77
2023/09/25 13:18:34;;;;;;;4.43;1.52;;;;;;;;;;4995751;28;20088;-77
2023/09/25 13:20:59;;;;;;;3.67;1.45;;;;;;;;;;4979812;28;20057;-77
2023/09/25 13:23:25;;;;;;;1.67;1.00;;;;;;;;;;4996254;28;20062;-77
2023/09/25 13:25:50;;;;;;;2.97;1.20;;;;;;;;;;4995997;28;20030;-76
2023/09/25 13:28:17;;;;;;;3.10;1.20;;;;;;;;;;4992441;28;20398;-77
2023/09/25 13:30:48;;;;;;;2.05;1.10;;;;;;;;;;4987329;28;20026;-77
2023/09/25 13:33:17;;;;;;;2.45;1.20;;;;;;;;;;4996173;28;20038;-78
2023/09/25 13:35:45;;;;;;;3.35;1.38;;;;;;;;;;4996287;28;20030;-77
2023/09/25 13:38:11;;;;;;;3.15;1.30;;;;;;;;;;4997148;28;20474;-78
2023/09/25 13:40:36;;;;;;;4.57;1.30;;;;;;;;;;4997271;28;20148;-78
2023/09/25 13:43:03;;;;;;;2.53;1.30;;;;;;;;;;4964698;28;20030;-78
2023/09/25 13:45:29;;;;;;;3.33;1.38;;;;;;;;;;4995803;28;20026;-78
2023/09/25 13:47:56;;;;;;;3.45;1.13;;;;;;;;;;4995336;28;20045;-77
2023/09/25 13:50:21;;;;;;;4.07;2.10;;;;;;;;;;4997182;28;20041;-77
2023/09/25 13:52:47;;;;;;;4.78;1.70;;;;;;;;;;4997740;28;20022;-78
2023/09/25 13:55:15;;;;;;;4.03;1.50;;;;;;;;;;4996722;28;20501;-77
2023/09/25 13:57:41;;;;;;;2.90;1.23;;;;;;;;;;4980068;28;20599;-78
2023/09/25 14:00:08;;;;;;;4.32;1.20;;;;;;;;;;4974309;28;20038;-78
2023/09/25 14:02:38;;;;;;;5.63;1.27;;;;;;;;;;4982210;28;20030;-78
2023/09/25 14:05:07;;;;;;;11.32;4.95;;;;;;;;;;4995953;28;20030;-77
2023/09/25 14:07:33;;;;;;;4.15;1.70;;;;;;;;;;4984709;28;20027;-77
2023/09/25 14:09:59;;;;;;;5.13;1.23;;;;;;;;;;4964772;28;20049;-77
2023/09/25 14:12:24;;;;;;;7.60;1.35;;;;;;;;;;4996211;28;20541;-78
2023/09/25 14:14:54;;;;;;;3.08;1.27;;;;;;;;;;4992231;28;20031;-78
2023/09/25 14:17:19;;;;;;;3.22;1.13;;;;;;;;;;4995375;28;20034;-78
2023/09/25 14:19:45;;;;;;;3.42;1.15;;;;;;;;;;5000545;28;20042;-81
2023/09/25 14:22:12;;;;;;;3.15;1.42;;;;;;;;;;4978447;28;20030;-77
2023/09/25 14:24:40;;;;;;;5.15;2.13;;;;;;;;;;4996692;28;20015;-78
2023/09/25 14:27:06;;;;;;;5.95;2.42;;;;;;;;;;4995785;28;20039;-78
2023/09/25 14:29:39;;;;;;;13.45;8.20;;;;;;;;;;5001282;28;20030;-77
2023/09/25 14:32:04;;;;;;;;;;;;;;;;;;4979236;28;20049;-78
2023/09/25 14:34:35;;;;;;;12.38;9.02;;;;;;;;;;4992869;28;19910;-78
2023/09/25 14:37:04;;;;;;;10.68;6.70;;;;;;;;;;4995347;28;20436;-79
2023/09/25 14:39:31;;;;;;;9.80;5.70;;;;;;;;;;4976977;28;20022;-78
2023/09/25 14:41:57;;;;;;;8.35;6.28;;;;;;;;;;4990459;28;20026;-78
2023/09/25 14:44:23;;;;;;;6.35;4.13;;;;;;;;;;4994825;28;20038;-78
2023/09/25 14:46:49;;;;;;;5.35;2.85;;;;;;;;;;4977956;28;20034;-78
2023/09/25 14:49:14;;;;;;;7.93;5.05;;;;;;;;;;4978674;28;20089;-78
2023/09/25 14:51:40;;;;;;;6.20;4.43;;;;;;;;;;4995482;28;20045;-78
2023/09/25 14:54:08;;;;;;;4.70;1.70;;;;;;;;;;4978359;28;20031;-78
2023/09/25 14:56:34;;;;;;;5.45;1.60;;;;;;;;;;4962560;28;20037;-78
2023/09/25 14:59:00;;;;;;;3.85;1.50;;;;;;;;;;4978296;28;20030;-77
2023/09/25 15:01:26;;;;;;;3.35;1.58;;;;;;;;;;4978253;28;20120;-78
2023/09/25 15:03:54;;;;;;;3.28;1.75;;;;;;;;;;4977271;28;20505;-78
2023/09/25 15:06:20;;;;;;;3.20;1.50;;;;;;;;;;4961449;28;20031;-77